Terminal Aerodrome Forecast
Issued by NWS Blacksburg, VA

Home | Current Version | Previous Version | Text Only | Print | Product List | Glossary On
Versions: 1 2 3 4 5 6 7 8 9 10 11 12 13 14 15 16 17 18 19 20 21 22 23 24 25 26
000
FTUS41 KRNK 031141
TAFROA
TAF
KROA 031141Z 0312/0412 28005KT P6SM -RA SCT007 OVC045
     FM031500 28008KT P6SM SCT015 OVC045
     FM040000 30006KT P6SM BKN060=

USA.gov is the U.S. government's official web portal to all federal, state and local government web resources and services.